Time;durP1;ratioP1;P1;durP2;ratioP2;P2;SDS_P1;SDS_P2;PMS_P1;PMS_P2;Temp;Humidity;BMP_temperature;BMP_pressure;BME280_temperature;BME280_humidity;BME280_pressure;Samples;Min_cycle;Max_cycle;Signal;HPM_P1;HPM_P2
2022/09/06 00:01:25;;;;;;;4.43;4.13;;;;;;;;;;5079226;28;20699;-69
2022/09/06 00:03:55;;;;;;;4.47;4.18;;;;;;;;;;5081094;28;20201;-68
2022/09/06 00:06:22;;;;;;;4.43;4.13;;;;;;;;;;5086560;28;20227;-68
2022/09/06 00:08:50;;;;;;;4.75;4.45;;;;;;;;;;5098302;28;20238;-68
2022/09/06 00:11:18;;;;;;;4.63;4.32;;;;;;;;;;5088079;28;20202;-68
2022/09/06 00:13:47;;;;;;;4.70;4.40;;;;;;;;;;5092033;28;20601;-69
2022/09/06 00:16:16;;;;;;;4.10;3.80;;;;;;;;;;5079096;28;20227;-68
2022/09/06 00:18:44;;;;;;;4.72;4.40;;;;;;;;;;5088016;28;20490;-68
2022/09/06 00:21:22;;;;;;;4.53;4.22;;;;;;;;;;5089342;28;20204;-67
2022/09/06 00:23:50;;;;;;;4.57;4.28;;;;;;;;;;5087108;28;20199;-68
2022/09/06 00:26:18;;;;;;;4.72;4.38;;;;;;;;;;5092945;28;20201;-68
2022/09/06 00:28:46;;;;;;;4.25;3.95;;;;;;;;;;5086397;28;20228;-68
2022/09/06 00:31:15;;;;;;;4.35;4.05;;;;;;;;;;5092396;28;20615;-69
2022/09/06 00:33:43;;;;;;;4.47;4.18;;;;;;;;;;5080659;28;20653;-68
2022/09/06 00:36:12;;;;;;;4.57;4.28;;;;;;;;;;5094167;28;20197;-69
2022/09/06 00:38:41;;;;;;;4.38;3.97;;;;;;;;;;5081626;28;20287;-68
2022/09/06 00:41:10;;;;;;;4.50;4.20;;;;;;;;;;5092839;28;20207;-68
2022/09/06 00:43:38;;;;;;;4.50;4.20;;;;;;;;;;5094352;28;20207;-68
2022/09/06 00:46:07;;;;;;;4.20;3.90;;;;;;;;;;5096987;28;20226;-68
2022/09/06 00:48:35;;;;;;;4.13;3.90;;;;;;;;;;5092090;28;20216;-68
2022/09/06 00:51:05;;;;;;;4.53;4.22;;;;;;;;;;5093801;28;20295;-68
2022/09/06 00:53:33;;;;;;;4.22;3.97;;;;;;;;;;5089390;28;20200;-68
2022/09/06 00:56:02;;;;;;;4.65;4.35;;;;;;;;;;5092828;28;20203;-68
2022/09/06 00:58:30;;;;;;;4.30;4.00;;;;;;;;;;5095866;28;20248;-68
2022/09/06 01:00:58;;;;;;;4.35;4.05;;;;;;;;;;5090372;28;20238;-68
2022/09/06 01:03:26;;;;;;;4.53;4.22;;;;;;;;;;5080160;28;20212;-68
2022/09/06 01:06:00;;;;;;;4.47;4.18;;;;;;;;;;5084907;28;20537;-68
2022/09/06 01:08:35;;;;;;;4.45;4.15;;;;;;;;;;5095681;28;20210;-68
2022/09/06 01:11:11;;;;;;;4.35;4.05;;;;;;;;;;5082200;28;20200;-68
2022/09/06 01:13:46;;;;;;;4.47;4.18;;;;;;;;;;5090267;28;20191;-68
2022/09/06 01:16:19;;;;;;;4.68;4.38;;;;;;;;;;5081808;28;20286;-68
2022/09/06 01:18:54;;;;;;;4.60;4.30;;;;;;;;;;5086950;28;20648;-68
2022/09/06 01:21:30;;;;;;;4.47;4.13;;;;;;;;;;5078088;28;20298;-68
2022/09/06 01:24:13;;;;;;;4.35;4.05;;;;;;;;;;5086855;28;20575;-69
2022/09/06 01:26:56;;;;;;;4.57;4.28;;;;;;;;;;5090440;28;20728;-69
2022/09/06 01:29:28;;;;;;;4.80;4.50;;;;;;;;;;5084960;28;20313;-69
2022/09/06 01:31:57;;;;;;;4.13;3.92;;;;;;;;;;5070692;28;20243;-68
2022/09/06 01:34:28;;;;;;;4.85;4.55;;;;;;;;;;5090459;28;20200;-68
2022/09/06 01:36:57;;;;;;;4.32;4.07;;;;;;;;;;5082498;28;20200;-69
2022/09/06 01:39:25;;;;;;;4.00;3.75;;;;;;;;;;5078809;28;20223;-68
2022/09/06 01:41:54;;;;;;;4.80;4.50;;;;;;;;;;5092115;28;20256;-68
2022/09/06 01:44:23;;;;;;;4.60;4.30;;;;;;;;;;5088948;28;20227;-67
2022/09/06 01:46:55;;;;;;;4.18;3.88;;;;;;;;;;5080821;28;20231;-67
2022/09/06 01:49:28;;;;;;;4.55;4.25;;;;;;;;;;5085631;28;20310;-68
2022/09/06 01:52:03;;;;;;;4.47;4.10;;;;;;;;;;5095152;28;20196;-68
2022/09/06 01:54:38;;;;;;;4.35;4.05;;;;;;;;;;5097415;28;20203;-68
2022/09/06 01:57:13;;;;;;;4.30;4.00;;;;;;;;;;5097758;28;20198;-68
2022/09/06 01:59:47;;;;;;;4.65;4.35;;;;;;;;;;5088538;28;20204;-68
2022/09/06 02:02:19;;;;;;;4.20;3.90;;;;;;;;;;5093749;28;20199;-68
2022/09/06 02:04:49;;;;;;;4.15;3.95;;;;;;;;;;5095465;28;20279;-68
2022/09/06 02:07:21;;;;;;;4.65;4.35;;;;;;;;;;5086623;28;20200;-68
2022/09/06 02:09:50;;;;;;;4.57;4.20;;;;;;;;;;5091304;28;20220;-68
2022/09/06 02:12:19;;;;;;;4.28;3.97;;;;;;;;;;5085607;28;20235;-68
2022/09/06 02:14:50;;;;;;;4.82;4.45;;;;;;;;;;5092349;28;20568;-68
2022/09/06 02:17:22;;;;;;;4.70;4.40;;;;;;;;;;5077312;28;20208;-68
2022/09/06 02:19:51;;;;;;;4.32;4.03;;;;;;;;;;5085156;28;20277;-68
2022/09/06 02:22:21;;;;;;;4.40;4.10;;;;;;;;;;5097514;28;20238;-68
2022/09/06 02:24:52;;;;;;;4.03;3.75;;;;;;;;;;5079449;28;20200;-68
2022/09/06 02:27:20;;;;;;;4.38;4.07;;;;;;;;;;5080660;28;20310;-68
2022/09/06 02:29:47;;;;;;;4.32;4.05;;;;;;;;;;5093524;28;20285;-68
2022/09/06 02:32:18;;;;;;;4.28;3.97;;;;;;;;;;5097129;28;20455;-68
2022/09/06 02:34:48;;;;;;;4.28;4.07;;;;;;;;;;5081798;28;20291;-68
2022/09/06 02:37:17;;;;;;;4.40;4.10;;;;;;;;;;5082017;28;20290;-68
2022/09/06 02:39:44;;;;;;;4.25;3.95;;;;;;;;;;5088355;28;20200;-67
2022/09/06 02:42:14;;;;;;;4.07;3.88;;;;;;;;;;5091415;28;20222;-69
2022/09/06 02:44:41;;;;;;;4.13;3.83;;;;;;;;;;5087747;28;20203;-68
2022/09/06 02:47:09;;;;;;;4.20;3.90;;;;;;;;;;5094206;28;20305;-68
2022/09/06 02:49:37;;;;;;;4.32;4.10;;;;;;;;;;5077551;28;20236;-68
2022/09/06 02:52:06;;;;;;;4.45;4.15;;;;;;;;;;5077447;28;20771;-68
2022/09/06 02:54:34;;;;;;;4.10;3.83;;;;;;;;;;5080173;28;20204;-68
2022/09/06 02:57:01;;;;;;;4.20;4.00;;;;;;;;;;5080416;28;20250;-69
2022/09/06 02:59:29;;;;;;;4.40;4.10;;;;;;;;;;5081528;28;20196;-68
2022/09/06 03:01:57;;;;;;;4.10;3.90;;;;;;;;;;5080143;28;20205;-68
2022/09/06 03:04:25;;;;;;;4.25;4.00;;;;;;;;;;5087389;28;20207;-68
2022/09/06 03:06:52;;;;;;;4.00;3.80;;;;;;;;;;5100515;28;20298;-68
2022/09/06 03:09:21;;;;;;;4.20;3.90;;;;;;;;;;5088497;28;20482;-68
2022/09/06 03:11:49;;;;;;;4.22;3.92;;;;;;;;;;5096442;28;20282;-68
2022/09/06 03:14:18;;;;;;;4.20;3.90;;;;;;;;;;5087194;28;20200;-68
2022/09/06 03:16:46;;;;;;;4.13;3.83;;;;;;;;;;5081424;28;20209;-68
2022/09/06 03:19:13;;;;;;;4.20;3.90;;;;;;;;;;5090810;28;20236;-68
2022/09/06 03:21:41;;;;;;;4.00;3.80;;;;;;;;;;5079826;28;20200;-68
2022/09/06 03:24:09;;;;;;;4.22;3.92;;;;;;;;;;5098324;28;20480;-68
2022/09/06 03:26:38;;;;;;;3.97;3.78;;;;;;;;;;5080675;28;20234;-68
2022/09/06 03:29:06;;;;;;;4.10;3.80;;;;;;;;;;5080250;28;20516;-67
2022/09/06 03:31:34;;;;;;;4.18;3.83;;;;;;;;;;5096086;28;20199;-68
2022/09/06 03:34:02;;;;;;;4.00;3.80;;;;;;;;;;5087197;28;20645;-68
2022/09/06 03:36:30;;;;;;;3.95;3.75;;;;;;;;;;5087140;28;20499;-68
2022/09/06 03:38:57;;;;;;;4.30;4.00;;;;;;;;;;5079446;28;20203;-68
2022/09/06 03:41:25;;;;;;;4.07;3.78;;;;;;;;;;5086715;28;20770;-68
2022/09/06 03:43:54;;;;;;;3.83;3.63;;;;;;;;;;5079687;28;20212;-68
2022/09/06 03:46:22;;;;;;;4.43;4.13;;;;;;;;;;5084828;28;20586;-69
2022/09/06 03:48:50;;;;;;;3.92;3.63;;;;;;;;;;5088450;28;20201;-68
2022/09/06 03:51:17;;;;;;;3.92;3.72;;;;;;;;;;5083376;28;20220;-68
2022/09/06 03:53:45;;;;;;;3.85;3.65;;;;;;;;;;5082568;28;20540;-68
2022/09/06 03:56:13;;;;;;;4.03;3.72;;;;;;;;;;5083419;28;20300;-68
2022/09/06 03:58:41;;;;;;;4.25;3.95;;;;;;;;;;5086793;28;20207;-68
2022/09/06 04:01:11;;;;;;;4.20;4.00;;;;;;;;;;5086791;28;20199;-68
2022/09/06 04:03:39;;;;;;;3.88;3.67;;;;;;;;;;5077555;28;20544;-68
2022/09/06 04:06:07;;;;;;;4.03;3.63;;;;;;;;;;5094662;28;20321;-69
2022/09/06 04:08:36;;;;;;;3.70;3.50;;;;;;;;;;5082564;28;20246;-68
2022/09/06 04:11:03;;;;;;;4.28;3.97;;;;;;;;;;5084294;28;20277;-68
2022/09/06 04:13:31;;;;;;;4.15;3.85;;;;;;;;;;5090630;28;20285;-66
2022/09/06 04:15:59;;;;;;;3.92;3.63;;;;;;;;;;5086695;28;20199;-67
2022/09/06 04:18:28;;;;;;;3.85;3.55;;;;;;;;;;5098315;28;20243;-67
2022/09/06 04:20:57;;;;;;;3.95;3.65;;;;;;;;;;5091980;28;20197;-67
2022/09/06 04:23:25;;;;;;;3.97;3.67;;;;;;;;;;5086081;28;20200;-67
2022/09/06 04:25:54;;;;;;;4.20;3.90;;;;;;;;;;5079136;28;20621;-66
2022/09/06 04:28:22;;;;;;;3.97;3.67;;;;;;;;;;5082764;28;20587;-67
2022/09/06 04:30:53;;;;;;;3.90;3.70;;;;;;;;;;5094309;28;20220;-67
2022/09/06 04:33:24;;;;;;;3.80;3.60;;;;;;;;;;5086162;28;20196;-66
2022/09/06 04:35:55;;;;;;;3.92;3.70;;;;;;;;;;5090750;28;20223;-67
2022/09/06 04:38:23;;;;;;;4.00;3.80;;;;;;;;;;5091958;28;20197;-66
2022/09/06 04:40:50;;;;;;;4.30;3.90;;;;;;;;;;5078204;28;20611;-66
2022/09/06 04:43:18;;;;;;;3.97;3.67;;;;;;;;;;5087120;28;20200;-66
2022/09/06 04:45:46;;;;;;;3.85;3.65;;;;;;;;;;5080874;28;20204;-66
2022/09/06 04:48:14;;;;;;;3.70;3.50;;;;;;;;;;5091595;28;20520;-66
2022/09/06 04:50:41;;;;;;;3.88;3.67;;;;;;;;;;5088313;28;20217;-66
2022/09/06 04:53:10;;;;;;;3.65;3.45;;;;;;;;;;5091768;28;20207;-66
2022/09/06 04:55:38;;;;;;;3.42;3.22;;;;;;;;;;5088278;28;20232;-66
2022/09/06 04:58:06;;;;;;;3.63;3.42;;;;;;;;;;5086483;28;20466;-66
2022/09/06 05:00:37;;;;;;;3.92;3.63;;;;;;;;;;5076693;28;20201;-66
2022/09/06 05:03:05;;;;;;;3.60;3.40;;;;;;;;;;5075955;28;20232;-66
2022/09/06 05:05:33;;;;;;;4.00;3.70;;;;;;;;;;5081459;28;20300;-66
2022/09/06 05:08:00;;;;;;;3.78;3.58;;;;;;;;;;5079904;28;20200;-66
2022/09/06 05:10:29;;;;;;;3.60;3.40;;;;;;;;;;5083161;28;20231;-66
2022/09/06 05:12:57;;;;;;;3.90;3.60;;;;;;;;;;5084474;28;20286;-66
2022/09/06 05:15:25;;;;;;;4.00;3.70;;;;;;;;;;5086012;28;20192;-66
2022/09/06 05:17:53;;;;;;;4.05;3.80;;;;;;;;;;5074592;28;20485;-66
2022/09/06 05:20:21;;;;;;;4.00;3.80;;;;;;;;;;5082374;28;20199;-66
2022/09/06 05:22:53;;;;;;;3.70;3.50;;;;;;;;;;5093843;28;20306;-66
2022/09/06 05:25:21;;;;;;;3.75;3.55;;;;;;;;;;5083951;28;20196;-66
2022/09/06 05:27:50;;;;;;;4.10;3.80;;;;;;;;;;5089802;28;20296;-66
2022/09/06 05:30:18;;;;;;;3.83;3.60;;;;;;;;;;5090529;28;20208;-66
2022/09/06 05:32:46;;;;;;;4.00;3.72;;;;;;;;;;5090689;28;20239;-66
2022/09/06 05:35:14;;;;;;;3.65;3.45;;;;;;;;;;5092970;28;20721;-65
2022/09/06 05:37:42;;;;;;;3.80;3.60;;;;;;;;;;5088768;28;20191;-66
2022/09/06 05:40:10;;;;;;;4.10;3.80;;;;;;;;;;5077529;28;20192;-66
2022/09/06 05:42:39;;;;;;;3.72;3.53;;;;;;;;;;5088804;28;20239;-66
2022/09/06 05:45:09;;;;;;;3.78;3.58;;;;;;;;;;5079853;28;20200;-66
2022/09/06 05:47:37;;;;;;;4.25;3.95;;;;;;;;;;5090768;28;20638;-66
2022/09/06 05:50:05;;;;;;;4.10;3.80;;;;;;;;;;5080053;28;20207;-66
2022/09/06 05:52:33;;;;;;;3.42;3.20;;;;;;;;;;5094627;28;20199;-66
2022/09/06 05:55:02;;;;;;;4.00;3.70;;;;;;;;;;5085556;28;20270;-66
2022/09/06 05:57:29;;;;;;;3.85;3.65;;;;;;;;;;5074865;28;20703;-66
2022/09/06 05:59:57;;;;;;;3.65;3.35;;;;;;;;;;5074371;28;20215;-66
2022/09/06 06:02:26;;;;;;;3.92;3.63;;;;;;;;;;5075012;28;20200;-66
2022/09/06 06:04:54;;;;;;;4.07;3.88;;;;;;;;;;5074826;28;20208;-66
2022/09/06 06:07:22;;;;;;;3.90;3.60;;;;;;;;;;5085806;28;20304;-66
2022/09/06 06:09:50;;;;;;;3.78;3.53;;;;;;;;;;5095252;28;20217;-66
2022/09/06 06:12:18;;;;;;;4.28;3.83;;;;;;;;;;5095159;28;20223;-66
2022/09/06 06:14:45;;;;;;;4.30;4.00;;;;;;;;;;5095048;28;20286;-66
2022/09/06 06:17:13;;;;;;;4.05;3.75;;;;;;;;;;5094913;28;20215;-66
2022/09/06 06:19:42;;;;;;;4.00;3.70;;;;;;;;;;5095576;28;20268;-66
2022/09/06 06:22:10;;;;;;;4.07;3.80;;;;;;;;;;5094883;28;20200;-66
2022/09/06 06:24:38;;;;;;;4.40;4.10;;;;;;;;;;5094372;28;20211;-66
2022/09/06 06:27:06;;;;;;;4.30;3.83;;;;;;;;;;5082067;28;20250;-66
2022/09/06 06:29:34;;;;;;;4.28;3.97;;;;;;;;;;5090267;28;20233;-66
2022/09/06 06:32:01;;;;;;;4.47;4.18;;;;;;;;;;5094994;28;20238;-66
2022/09/06 06:34:29;;;;;;;4.10;3.80;;;;;;;;;;5080776;28;20705;-66
2022/09/06 06:36:59;;;;;;;5.05;4.57;;;;;;;;;;5078625;28;20210;-66
2022/09/06 06:39:27;;;;;;;4.65;4.35;;;;;;;;;;5094081;28;20195;-66
2022/09/06 06:41:55;;;;;;;4.38;3.97;;;;;;;;;;5081071;28;20184;-66
2022/09/06 06:44:22;;;;;;;5.30;4.80;;;;;;;;;;5081681;28;20705;-66
2022/09/06 06:46:50;;;;;;;4.70;4.30;;;;;;;;;;5088642;28;20623;-66
2022/09/06 06:49:18;;;;;;;4.80;4.40;;;;;;;;;;5096416;28;20191;-66
2022/09/06 06:51:47;;;;;;;5.25;4.75;;;;;;;;;;5078064;28;20231;-66
2022/09/06 06:54:16;;;;;;;5.00;4.60;;;;;;;;;;5077964;28;20534;-66
2022/09/06 06:56:44;;;;;;;5.22;4.35;;;;;;;;;;5078083;28;20307;-66
2022/09/06 06:59:12;;;;;;;4.32;4.00;;;;;;;;;;5079220;28;20249;-66
2022/09/06 07:01:41;;;;;;;4.10;3.80;;;;;;;;;;5085612;28;20203;-66
2022/09/06 07:04:10;;;;;;;4.57;4.28;;;;;;;;;;5089552;28;20200;-66
2022/09/06 07:06:48;;;;;;;5.10;4.70;;;;;;;;;;5088470;28;20203;-66
2022/09/06 07:09:18;;;;;;;5.00;4.60;;;;;;;;;;5096884;28;20238;-66
2022/09/06 07:11:47;;;;;;;4.95;4.55;;;;;;;;;;5078560;28;20604;-66
2022/09/06 07:14:14;;;;;;;4.88;4.47;;;;;;;;;;5092902;28;20330;-66
2022/09/06 07:16:43;;;;;;;4.53;4.22;;;;;;;;;;5084750;28;20200;-66
2022/09/06 07:19:11;;;;;;;4.60;4.30;;;;;;;;;;5085249;28;20618;-66
2022/09/06 07:21:38;;;;;;;4.45;4.05;;;;;;;;;;5092777;28;20226;-66
2022/09/06 07:24:07;;;;;;;4.40;4.07;;;;;;;;;;5077848;28;20616;-66
2022/09/06 07:26:36;;;;;;;4.68;4.38;;;;;;;;;;5080032;28;20600;-66
2022/09/06 07:29:04;;;;;;;4.68;4.28;;;;;;;;;;5077376;28;20266;-66
2022/09/06 07:31:32;;;;;;;4.60;4.20;;;;;;;;;;5078172;28;20242;-66
2022/09/06 07:34:00;;;;;;;4.65;4.30;;;;;;;;;;5083243;28;20265;-66
2022/09/06 07:36:27;;;;;;;4.38;4.07;;;;;;;;;;5095647;28;20196;-66
2022/09/06 07:38:55;;;;;;;4.10;3.80;;;;;;;;;;5096376;28;20207;-66
2022/09/06 07:41:22;;;;;;;4.45;4.15;;;;;;;;;;5094951;28;20223;-66
2022/09/06 07:43:54;;;;;;;4.40;4.10;;;;;;;;;;5087768;28;20200;-66
2022/09/06 07:46:22;;;;;;;5.15;4.72;;;;;;;;;;5085473;28;20215;-66
2022/09/06 07:48:50;;;;;;;4.93;4.57;;;;;;;;;;5085357;28;20238;-66
2022/09/06 07:51:18;;;;;;;4.60;4.30;;;;;;;;;;5085017;28;20339;-66
2022/09/06 07:53:49;;;;;;;4.07;3.78;;;;;;;;;;5079703;28;20579;-66
2022/09/06 07:56:17;;;;;;;4.82;4.43;;;;;;;;;;5094745;28;20603;-66
2022/09/06 07:58:44;;;;;;;4.72;4.32;;;;;;;;;;5077408;28;20258;-66
2022/09/06 08:01:16;;;;;;;5.10;4.70;;;;;;;;;;5090777;28;20196;-66
2022/09/06 08:03:44;;;;;;;5.13;4.72;;;;;;;;;;5091206;28;20218;-66
2022/09/06 08:06:12;;;;;;;5.00;4.60;;;;;;;;;;5086031;28;20312;-66
2022/09/06 08:08:39;;;;;;;5.00;4.60;;;;;;;;;;5083890;28;20240;-66
2022/09/06 08:11:07;;;;;;;4.90;4.60;;;;;;;;;;5086281;28;20220;-66
2022/09/06 08:13:35;;;;;;;4.70;4.40;;;;;;;;;;5083403;28;20203;-66
2022/09/06 08:16:03;;;;;;;4.85;4.55;;;;;;;;;;5075515;28;20248;-66
2022/09/06 08:18:32;;;;;;;5.10;4.70;;;;;;;;;;5076337;28;20239;-66
2022/09/06 08:21:06;;;;;;;4.63;4.32;;;;;;;;;;5087690;28;20235;-66
2022/09/06 08:23:34;;;;;;;4.80;4.50;;;;;;;;;;5095297;28;20302;-66
2022/09/06 08:26:01;;;;;;;5.18;4.78;;;;;;;;;;5082395;28;20207;-66
2022/09/06 08:28:29;;;;;;;5.00;4.60;;;;;;;;;;5079331;28;20192;-67
2022/09/06 08:30:56;;;;;;;5.15;4.78;;;;;;;;;;5084872;28;20812;-66
2022/09/06 08:33:24;;;;;;;4.78;4.38;;;;;;;;;;5093173;28;20196;-66
2022/09/06 08:35:59;;;;;;;4.90;4.50;;;;;;;;;;5076273;28;20200;-66
2022/09/06 08:38:26;;;;;;;5.18;4.78;;;;;;;;;;5094318;28;20298;-66
2022/09/06 08:40:55;;;;;;;5.32;4.93;;;;;;;;;;5090490;28;20231;-67
2022/09/06 08:43:23;;;;;;;5.47;5.07;;;;;;;;;;5076611;28;20231;-66
2022/09/06 08:45:55;;;;;;;5.60;5.10;;;;;;;;;;5079384;28;20208;-66
2022/09/06 08:48:22;;;;;;;5.40;5.00;;;;;;;;;;5074764;28;20321;-66
2022/09/06 08:50:56;;;;;;;5.80;5.30;;;;;;;;;;5076710;28;20204;-66
2022/09/06 08:53:27;;;;;;;5.70;5.30;;;;;;;;;;5082335;28;20293;-66
2022/09/06 08:56:00;;;;;;;5.07;4.70;;;;;;;;;;5094177;28;20304;-66
2022/09/06 08:58:34;;;;;;;5.43;5.03;;;;;;;;;;5074265;28;20300;-66
2022/09/06 09:01:03;;;;;;;5.65;5.25;;;;;;;;;;5074895;28;20243;-66
2022/09/06 09:03:33;;;;;;;5.95;5.55;;;;;;;;;;5074653;28;20816;-67
2022/09/06 09:06:04;;;;;;;5.30;4.90;;;;;;;;;;5073435;28;20295;-68
2022/09/06 09:08:36;;;;;;;7.60;5.63;;;;;;;;;;5077203;28;20579;-66
2022/09/06 09:11:05;;;;;;;6.47;5.88;;;;;;;;;;5094676;28;20239;-65
2022/09/06 09:13:35;;;;;;;7.88;5.93;;;;;;;;;;5093967;28;20265;-66
2022/09/06 09:16:03;;;;;;;7.22;6.13;;;;;;;;;;5094442;28;20689;-66
2022/09/06 09:18:32;;;;;;;10.95;6.47;;;;;;;;;;5094626;28;20235;-66
2022/09/06 09:21:00;;;;;;;7.82;6.93;;;;;;;;;;5094071;28;20242;-67
2022/09/06 09:23:29;;;;;;;7.65;6.95;;;;;;;;;;5094078;28;20203;-66
2022/09/06 09:26:00;;;;;;;8.00;7.30;;;;;;;;;;5093365;28;20214;-67
2022/09/06 09:28:28;;;;;;;7.55;6.85;;;;;;;;;;5094069;28;20242;-67
2022/09/06 09:30:56;;;;;;;8.10;7.40;;;;;;;;;;5093314;28;20591;-67
2022/09/06 09:33:28;;;;;;;7.82;7.13;;;;;;;;;;5094012;28;20231;-67
2022/09/06 09:35:57;;;;;;;7.82;7.18;;;;;;;;;;5093522;28;20199;-66
2022/09/06 09:38:25;;;;;;;8.25;7.60;;;;;;;;;;5094343;28;20529;-66
2022/09/06 09:40:53;;;;;;;8.07;7.47;;;;;;;;;;5094089;28;20204;-67
2022/09/06 09:43:23;;;;;;;7.60;7.00;;;;;;;;;;5094491;28;20204;-67
2022/09/06 09:46:13;;;;;;;7.63;7.03;;;;;;;;;;5083061;28;20248;-66
2022/09/06 09:48:41;;;;;;;7.85;7.25;;;;;;;;;;5073096;28;20200;-67
2022/09/06 09:51:22;;;;;;;7.35;6.85;;;;;;;;;;5074281;28;20196;-66
2022/09/06 09:53:51;;;;;;;7.43;6.80;;;;;;;;;;5073030;28;20206;-67
2022/09/06 09:56:20;;;;;;;7.78;7.28;;;;;;;;;;5073226;28;20203;-66
2022/09/06 09:58:48;;;;;;;7.30;6.80;;;;;;;;;;5073888;28;20196;-67
2022/09/06 10:01:27;;;;;;;7.53;6.85;;;;;;;;;;5072714;28;20227;-66
2022/09/06 10:04:01;;;;;;;7.60;7.05;;;;;;;;;;5073705;28;20307;-66
2022/09/06 10:06:28;;;;;;;7.57;6.97;;;;;;;;;;5073774;28;20204;-70
2022/09/06 10:08:56;;;;;;;7.20;6.60;;;;;;;;;;5074042;28;20216;-67
2022/09/06 10:11:39;;;;;;;7.45;6.95;;;;;;;;;;5072875;28;20200;-67
2022/09/06 10:14:12;;;;;;;7.10;6.60;;;;;;;;;;5072213;28;20204;-66
2022/09/06 10:16:44;;;;;;;7.50;6.90;;;;;;;;;;5072722;28;20197;-67
2022/09/06 10:19:32;;;;;;;7.30;6.80;;;;;;;;;;5073061;28;20588;-67
2022/09/06 10:22:02;;;;;;;7.13;6.60;;;;;;;;;;5067709;28;20210;-66
2022/09/06 10:24:33;;;;;;;6.88;6.45;;;;;;;;;;5073310;28;20631;-66
2022/09/06 10:27:02;;;;;;;7.45;6.95;;;;;;;;;;5072637;28;20205;-67
2022/09/06 10:29:35;;;;;;;7.10;6.70;;;;;;;;;;5072853;28;20204;-66
2022/09/06 10:32:09;;;;;;;7.53;6.93;;;;;;;;;;5073354;28;20666;-67
2022/09/06 10:35:02;;;;;;;7.00;6.40;;;;;;;;;;5073264;28;20262;-66
2022/09/06 10:37:41;;;;;;;8.20;7.60;;;;;;;;;;5057435;28;20699;-67
2022/09/06 10:40:10;;;;;;;7.50;7.00;;;;;;;;;;5072119;28;20653;-67
2022/09/06 10:42:42;;;;;;;7.30;6.80;;;;;;;;;;5072567;28;20793;-67
2022/09/06 10:45:21;;;;;;;7.00;6.50;;;;;;;;;;5075744;28;20187;-67
2022/09/06 10:48:00;;;;;;;7.53;7.03;;;;;;;;;;5093000;28;20243;-67
2022/09/06 10:50:32;;;;;;;7.15;6.55;;;;;;;;;;5092634;28;20301;-66
2022/09/06 10:53:03;;;;;;;7.47;6.97;;;;;;;;;;5092448;28;20619;-66
2022/09/06 10:55:31;;;;;;;6.90;6.43;;;;;;;;;;5091974;28;20203;-67
2022/09/06 10:58:04;;;;;;;7.07;6.57;;;;;;;;;;5092887;28;20612;-67
2022/09/06 11:00:35;;;;;;;7.07;6.50;;;;;;;;;;5092627;28;20204;-66
2022/09/06 11:03:08;;;;;;;6.82;6.35;;;;;;;;;;5091384;28;20206;-67
2022/09/06 11:05:37;;;;;;;7.55;7.05;;;;;;;;;;5091395;28;20195;-67
2022/09/06 11:08:06;;;;;;;7.60;7.00;;;;;;;;;;5092796;28;20286;-66
2022/09/06 11:10:36;;;;;;;6.88;6.40;;;;;;;;;;5093113;28;20203;-66
2022/09/06 11:13:05;;;;;;;7.25;6.75;;;;;;;;;;5094232;28;20500;-66
2022/09/06 11:15:41;;;;;;;7.22;6.72;;;;;;;;;;5097163;28;20675;-67
2022/09/06 11:18:10;;;;;;;7.32;6.82;;;;;;;;;;5096568;28;20204;-66
2022/09/06 11:20:40;;;;;;;6.85;6.35;;;;;;;;;;5096783;28;20290;-67
2022/09/06 11:23:22;;;;;;;7.10;6.60;;;;;;;;;;5096907;28;20302;-66
2022/09/06 11:26:08;;;;;;;7.38;6.78;;;;;;;;;;5094902;28;20313;-67
2022/09/06 11:28:37;;;;;;;7.82;7.28;;;;;;;;;;5095989;28;20302;-67
2022/09/06 11:31:09;;;;;;;7.32;6.82;;;;;;;;;;5095887;28;20302;-66
2022/09/06 11:33:38;;;;;;;7.00;6.60;;;;;;;;;;5096045;28;20842;-67
2022/09/06 11:36:20;;;;;;;7.40;6.82;;;;;;;;;;5096095;28;20306;-67
2022/09/06 11:38:55;;;;;;;7.05;6.55;;;;;;;;;;5097401;28;20233;-66
2022/09/06 11:41:28;;;;;;;6.80;6.30;;;;;;;;;;5094789;28;20203;-67
2022/09/06 11:43:56;;;;;;;6.20;5.80;;;;;;;;;;5095795;28;20202;-66
2022/09/06 11:46:39;;;;;;;6.63;6.13;;;;;;;;;;5081687;28;20269;-67
2022/09/06 11:49:09;;;;;;;6.70;6.20;;;;;;;;;;5062697;28;20568;-67
2022/09/06 11:51:37;;;;;;;7.15;6.45;;;;;;;;;;5075043;28;20352;-67
2022/09/06 11:54:23;;;;;;;6.47;5.95;;;;;;;;;;5074556;28;20326;-67
2022/09/06 11:56:54;;;;;;;6.78;6.28;;;;;;;;;;5073564;28;20688;-66
2022/09/06 11:59:28;;;;;;;6.63;6.07;;;;;;;;;;5074531;28;20323;-67
2022/09/06 12:02:02;;;;;;;6.32;5.80;;;;;;;;;;5074123;28;20295;-66
2022/09/06 12:04:48;;;;;;;6.20;5.63;;;;;;;;;;5074360;28;20274;-67
2022/09/06 12:07:17;;;;;;;6.15;5.60;;;;;;;;;;5073553;28;20204;-67
2022/09/06 12:09:45;;;;;;;5.75;5.35;;;;;;;;;;5074588;28;20731;-66
2022/09/06 12:12:12;;;;;;;6.10;5.60;;;;;;;;;;5075313;28;20289;-67
2022/09/06 12:14:41;;;;;;;5.97;5.38;;;;;;;;;;5075160;28;20282;-66
2022/09/06 12:17:23;;;;;;;5.93;5.50;;;;;;;;;;5074850;28;20286;-67
2022/09/06 12:19:52;;;;;;;6.00;5.60;;;;;;;;;;5074735;28;20216;-67
2022/09/06 12:22:39;;;;;;;5.78;5.28;;;;;;;;;;5073739;28;20209;-67
2022/09/06 12:25:16;;;;;;;5.75;5.25;;;;;;;;;;5072589;28;20574;-67
2022/09/06 12:27:52;;;;;;;5.60;5.20;;;;;;;;;;5073805;28;20196;-67
2022/09/06 12:30:31;;;;;;;5.70;5.20;;;;;;;;;;5073647;28;20287;-67
2022/09/06 12:32:59;;;;;;;5.25;4.93;;;;;;;;;;5073743;28;20232;-66
2022/09/06 12:35:29;;;;;;;5.65;5.15;;;;;;;;;;5073967;28;20199;-66
2022/09/06 12:37:58;;;;;;;6.18;5.40;;;;;;;;;;5072402;28;20561;-66
2022/09/06 12:40:29;;;;;;;5.30;4.90;;;;;;;;;;5073268;28;20204;-67
2022/09/06 12:42:57;;;;;;;5.05;4.68;;;;;;;;;;5073386;28;20196;-67
2022/09/06 12:45:25;;;;;;;5.50;4.97;;;;;;;;;;5079106;28;20195;-66
2022/09/06 12:48:03;;;;;;;5.28;4.88;;;;;;;;;;5094161;28;20326;-66
2022/09/06 12:50:31;;;;;;;4.80;4.40;;;;;;;;;;5093393;28;20196;-67
2022/09/06 12:52:59;;;;;;;4.50;4.20;;;;;;;;;;5093732;28;20231;-66
2022/09/06 12:55:31;;;;;;;5.00;4.70;;;;;;;;;;5093571;28;20207;-67
2022/09/06 12:57:59;;;;;;;4.63;4.32;;;;;;;;;;5093023;28;20199;-67
2022/09/06 13:00:29;;;;;;;5.30;4.90;;;;;;;;;;5094092;28;20303;-66
2022/09/06 13:03:04;;;;;;;5.03;4.63;;;;;;;;;;5093598;28;20200;-67
2022/09/06 13:05:32;;;;;;;4.30;4.00;;;;;;;;;;5092755;28;20256;-66
2022/09/06 13:08:03;;;;;;;4.93;4.53;;;;;;;;;;5093727;28;20196;-66
2022/09/06 13:10:32;;;;;;;4.95;4.18;;;;;;;;;;5093473;28;20211;-67
2022/09/06 13:13:00;;;;;;;4.68;4.28;;;;;;;;;;5092804;28;20623;-66
2022/09/06 13:15:29;;;;;;;4.30;4.00;;;;;;;;;;5094243;28;20204;-67
2022/09/06 13:18:12;;;;;;;4.65;4.35;;;;;;;;;;5092714;28;20603;-67
2022/09/06 13:20:39;;;;;;;4.28;3.97;;;;;;;;;;5092134;28;20200;-66
2022/09/06 13:23:09;;;;;;;4.85;3.67;;;;;;;;;;5093712;28;20200;-66
2022/09/06 13:25:46;;;;;;;4.25;3.95;;;;;;;;;;5093342;28;20639;-67
2022/09/06 13:28:23;;;;;;;4.43;4.03;;;;;;;;;;5094271;28;20203;-66
2022/09/06 13:31:03;;;;;;;4.50;4.10;;;;;;;;;;5094566;28;20278;-67
2022/09/06 13:33:30;;;;;;;4.35;4.03;;;;;;;;;;5093091;28;20226;-67
2022/09/06 13:36:07;;;;;;;3.80;3.50;;;;;;;;;;5093054;28;20239;-67
2022/09/06 13:38:35;;;;;;;4.25;3.85;;;;;;;;;;5093252;28;20210;-67
2022/09/06 13:41:04;;;;;;;3.72;3.42;;;;;;;;;;5093063;28;20211;-66
2022/09/06 13:43:32;;;;;;;3.75;3.30;;;;;;;;;;5093168;28;20639;-66
2022/09/06 13:46:07;;;;;;;4.25;3.38;;;;;;;;;;5083073;28;20197;-67
2022/09/06 13:48:34;;;;;;;3.50;3.20;;;;;;;;;;5053024;28;20307;-68
2022/09/06 13:51:04;;;;;;;5.28;3.63;;;;;;;;;;5053018;28;20287;-67
2022/09/06 13:53:31;;;;;;;3.35;3.05;;;;;;;;;;5053383;28;20763;-67
2022/09/06 13:55:59;;;;;;;4.18;3.35;;;;;;;;;;5052063;28;20577;-67
2022/09/06 13:58:28;;;;;;;3.53;3.15;;;;;;;;;;5053209;28;20201;-67
2022/09/06 14:00:56;;;;;;;4.38;3.42;;;;;;;;;;5053114;28;20508;-67
2022/09/06 14:03:24;;;;;;;3.55;3.25;;;;;;;;;;5051065;28;20232;-67
2022/09/06 14:05:52;;;;;;;3.10;2.90;;;;;;;;;;5052046;28;20581;-67
2022/09/06 14:08:19;;;;;;;4.45;3.08;;;;;;;;;;5052291;28;20660;-66
2022/09/06 14:10:48;;;;;;;3.33;2.83;;;;;;;;;;5052620;28;20312;-67
2022/09/06 14:13:16;;;;;;;3.30;3.00;;;;;;;;;;5052145;28;20232;-67
2022/09/06 14:15:45;;;;;;;3.60;2.90;;;;;;;;;;5053470;28;20245;-67
2022/09/06 14:18:13;;;;;;;3.38;3.08;;;;;;;;;;5053408;28;20197;-67
2022/09/06 14:20:40;;;;;;;3.00;2.80;;;;;;;;;;5052039;28;20465;-67
2022/09/06 14:23:08;;;;;;;4.18;2.80;;;;;;;;;;5051607;28;20201;-67
2022/09/06 14:25:35;;;;;;;3.13;2.92;;;;;;;;;;5052168;28;20220;-66
2022/09/06 14:28:03;;;;;;;2.90;2.60;;;;;;;;;;5052567;28;20203;-66
2022/09/06 14:30:30;;;;;;;3.22;2.92;;;;;;;;;;5053416;28;20201;-66
2022/09/06 14:32:59;;;;;;;3.15;2.95;;;;;;;;;;5052284;28;20272;-66
2022/09/06 14:35:27;;;;;;;2.97;2.78;;;;;;;;;;5052500;28;20303;-66
2022/09/06 14:37:55;;;;;;;3.10;2.90;;;;;;;;;;5052478;28;20216;-66
2022/09/06 14:40:22;;;;;;;2.70;2.50;;;;;;;;;;5051930;28;20299;-66
2022/09/06 14:42:50;;;;;;;3.45;3.15;;;;;;;;;;5050253;28;20212;-68
2022/09/06 14:45:17;;;;;;;3.10;2.90;;;;;;;;;;5056099;28;20196;-67
2022/09/06 14:47:44;;;;;;;3.00;2.80;;;;;;;;;;5084690;28;20238;-66
2022/09/06 14:50:13;;;;;;;2.90;2.70;;;;;;;;;;5096437;28;20222;-66
2022/09/06 14:52:40;;;;;;;3.03;2.75;;;;;;;;;;5095823;28;20200;-66
2022/09/06 14:55:08;;;;;;;2.85;2.65;;;;;;;;;;5095147;28;20199;-66
2022/09/06 14:57:35;;;;;;;3.22;3.03;;;;;;;;;;5095805;28;20767;-66
2022/09/06 15:00:06;;;;;;;3.17;2.92;;;;;;;;;;5095524;28;20207;-66